sensor_id;sensor_type;location;lat;lon;timestamp;P1;durP1;ratioP1;P2;durP2;ratioP2
62848;SDS011;48941;49.516;8.286;2022-11-15T00:00:59;13.45;;;9.23;;
62848;SDS011;48941;49.516;8.286;2022-11-15T00:03:27;15.65;;;9.55;;
62848;SDS011;48941;49.516;8.286;2022-11-15T00:05:55;14.82;;;10.05;;
62848;SDS011;48941;49.516;8.286;2022-11-15T00:08:31;32.78;;;17.92;;
62848;SDS011;48941;49.516;8.286;2022-11-15T00:11:00;33.83;;;18.63;;
62848;SDS011;48941;49.516;8.286;2022-11-15T00:13:29;22.73;;;14.38;;
62848;SDS011;48941;49.516;8.286;2022-11-15T00:15:58;22.50;;;13.85;;
62848;SDS011;48941;49.516;8.286;2022-11-15T00:18:27;17.92;;;10.20;;
62848;SDS011;48941;49.516;8.286;2022-11-15T00:20:55;14.45;;;10.30;;
62848;SDS011;48941;49.516;8.286;2022-11-15T00:23:31;17.58;;;10.52;;
62848;SDS011;48941;49.516;8.286;2022-11-15T00:25:59;14.75;;;9.93;;
62848;SDS011;48941;49.516;8.286;2022-11-15T00:28:27;18.48;;;9.02;;
62848;SDS011;48941;49.516;8.286;2022-11-15T00:30:59;15.40;;;9.27;;
62848;SDS011;48941;49.516;8.286;2022-11-15T00:33:28;18.42;;;9.60;;
62848;SDS011;48941;49.516;8.286;2022-11-15T00:36:00;15.73;;;9.55;;
62848;SDS011;48941;49.516;8.286;2022-11-15T00:38:31;12.70;;;9.63;;
62848;SDS011;48941;49.516;8.286;2022-11-15T00:41:00;17.52;;;9.15;;
62848;SDS011;48941;49.516;8.286;2022-11-15T00:43:35;14.30;;;8.95;;
62848;SDS011;48941;49.516;8.286;2022-11-15T00:46:03;12.73;;;8.50;;
62848;SDS011;48941;49.516;8.286;2022-11-15T00:48:31;12.50;;;8.70;;
62848;SDS011;48941;49.516;8.286;2022-11-15T00:50:59;12.73;;;7.93;;
62848;SDS011;48941;49.516;8.286;2022-11-15T00:53:27;14.10;;;8.23;;
62848;SDS011;48941;49.516;8.286;2022-11-15T00:55:56;13.30;;;8.60;;
62848;SDS011;48941;49.516;8.286;2022-11-15T00:58:24;13.88;;;8.00;;
62848;SDS011;48941;49.516;8.286;2022-11-15T01:00:52;12.38;;;8.15;;
62848;SDS011;48941;49.516;8.286;2022-11-15T01:03:21;11.43;;;7.55;;
62848;SDS011;48941;49.516;8.286;2022-11-15T01:05:48;11.20;;;7.75;;
62848;SDS011;48941;49.516;8.286;2022-11-15T01:08:16;13.85;;;7.72;;
62848;SDS011;48941;49.516;8.286;2022-11-15T01:10:44;10.30;;;7.38;;
62848;SDS011;48941;49.516;8.286;2022-11-15T01:13:13;11.82;;;7.70;;
62848;SDS011;48941;49.516;8.286;2022-11-15T01:15:41;13.18;;;7.75;;
62848;SDS011;48941;49.516;8.286;2022-11-15T01:18:09;13.18;;;7.45;;
62848;SDS011;48941;49.516;8.286;2022-11-15T01:20:39;11.93;;;7.53;;
62848;SDS011;48941;49.516;8.286;2022-11-15T01:23:07;12.80;;;7.00;;
62848;SDS011;48941;49.516;8.286;2022-11-15T01:25:35;10.68;;;7.13;;
62848;SDS011;48941;49.516;8.286;2022-11-15T01:28:02;12.27;;;7.30;;
62848;SDS011;48941;49.516;8.286;2022-11-15T01:33:00;13.55;;;7.15;;
62848;SDS011;48941;49.516;8.286;2022-11-15T01:35:28;11.60;;;6.70;;
62848;SDS011;48941;49.516;8.286;2022-11-15T01:37:56;9.55;;;6.63;;
62848;SDS011;48941;49.516;8.286;2022-11-15T01:47:31;9.55;;;6.40;;
62848;SDS011;48941;49.516;8.286;2022-11-15T01:52:32;9.02;;;6.05;;
62848;SDS011;48941;49.516;8.286;2022-11-15T01:55:02;9.70;;;6.13;;
62848;SDS011;48941;49.516;8.286;2022-11-15T01:57:33;10.07;;;6.80;;
62848;SDS011;48941;49.516;8.286;2022-11-15T02:00:03;10.50;;;6.70;;
62848;SDS011;48941;49.516;8.286;2022-11-15T02:02:34;9.57;;;6.28;;
62848;SDS011;48941;49.516;8.286;2022-11-15T02:05:04;9.43;;;6.78;;
62848;SDS011;48941;49.516;8.286;2022-11-15T02:07:32;12.18;;;6.20;;
62848;SDS011;48941;49.516;8.286;2022-11-15T02:10:04;11.13;;;6.47;;
62848;SDS011;48941;49.516;8.286;2022-11-15T02:12:35;14.75;;;6.60;;
62848;SDS011;48941;49.516;8.286;2022-11-15T02:15:03;12.57;;;6.38;;
62848;SDS011;48941;49.516;8.286;2022-11-15T02:17:42;9.35;;;6.22;;
62848;SDS011;48941;49.516;8.286;2022-11-15T02:29:28;10.25;;;6.50;;
62848;SDS011;48941;49.516;8.286;2022-11-15T02:32:07;9.85;;;6.72;;
62848;SDS011;48941;49.516;8.286;2022-11-15T02:34:46;12.43;;;7.00;;
62848;SDS011;48941;49.516;8.286;2022-11-15T02:37:21;12.05;;;7.13;;
62848;SDS011;48941;49.516;8.286;2022-11-15T02:39:58;13.00;;;7.38;;
62848;SDS011;48941;49.516;8.286;2022-11-15T02:42:35;10.07;;;6.63;;
62848;SDS011;48941;49.516;8.286;2022-11-15T02:45:31;12.32;;;6.82;;
62848;SDS011;48941;49.516;8.286;2022-11-15T02:48:07;11.02;;;7.22;;
62848;SDS011;48941;49.516;8.286;2022-11-15T02:50:38;14.85;;;6.35;;
62848;SDS011;48941;49.516;8.286;2022-11-15T02:53:06;11.25;;;6.80;;
62848;SDS011;48941;49.516;8.286;2022-11-15T02:55:35;8.95;;;6.22;;
62848;SDS011;48941;49.516;8.286;2022-11-15T02:58:18;12.68;;;6.70;;
62848;SDS011;48941;49.516;8.286;2022-11-15T03:00:58;12.80;;;6.00;;
62848;SDS011;48941;49.516;8.286;2022-11-15T03:03:42;9.73;;;6.72;;
62848;SDS011;48941;49.516;8.286;2022-11-15T03:06:20;9.07;;;6.32;;
62848;SDS011;48941;49.516;8.286;2022-11-15T03:08:59;12.50;;;6.45;;
62848;SDS011;48941;49.516;8.286;2022-11-15T03:11:32;8.65;;;5.85;;
62848;SDS011;48941;49.516;8.286;2022-11-15T03:14:08;10.13;;;6.38;;
62848;SDS011;48941;49.516;8.286;2022-11-15T03:16:45;9.98;;;6.72;;
62848;SDS011;48941;49.516;8.286;2022-11-15T03:19:22;9.75;;;6.20;;
62848;SDS011;48941;49.516;8.286;2022-11-15T03:21:55;9.32;;;6.55;;
62848;SDS011;48941;49.516;8.286;2022-11-15T03:24:28;11.85;;;7.00;;
62848;SDS011;48941;49.516;8.286;2022-11-15T03:26:59;10.27;;;6.47;;
62848;SDS011;48941;49.516;8.286;2022-11-15T03:29:29;9.20;;;6.05;;
62848;SDS011;48941;49.516;8.286;2022-11-15T03:34:34;8.65;;;5.78;;
62848;SDS011;48941;49.516;8.286;2022-11-15T03:37:06;11.80;;;6.28;;
62848;SDS011;48941;49.516;8.286;2022-11-15T03:39:35;11.13;;;6.40;;
62848;SDS011;48941;49.516;8.286;2022-11-15T03:42:04;12.95;;;6.50;;
62848;SDS011;48941;49.516;8.286;2022-11-15T03:44:43;11.05;;;6.40;;
62848;SDS011;48941;49.516;8.286;2022-11-15T03:47:17;10.52;;;6.50;;
62848;SDS011;48941;49.516;8.286;2022-11-15T03:49:52;9.10;;;6.13;;
62848;SDS011;48941;49.516;8.286;2022-11-15T03:52:24;10.00;;;5.80;;
62848;SDS011;48941;49.516;8.286;2022-11-15T03:54:52;11.82;;;5.65;;
62848;SDS011;48941;49.516;8.286;2022-11-15T03:57:21;13.18;;;5.93;;
62848;SDS011;48941;49.516;8.286;2022-11-15T03:59:49;10.20;;;5.97;;
62848;SDS011;48941;49.516;8.286;2022-11-15T04:02:17;10.68;;;6.03;;
62848;SDS011;48941;49.516;8.286;2022-11-15T04:04:45;8.25;;;5.80;;
62848;SDS011;48941;49.516;8.286;2022-11-15T04:07:14;10.02;;;6.13;;
62848;SDS011;48941;49.516;8.286;2022-11-15T04:09:42;9.63;;;6.22;;
62848;SDS011;48941;49.516;8.286;2022-11-15T04:12:28;10.80;;;6.50;;
62848;SDS011;48941;49.516;8.286;2022-11-15T04:14:59;12.65;;;6.43;;
62848;SDS011;48941;49.516;8.286;2022-11-15T04:17:37;8.73;;;6.28;;
62848;SDS011;48941;49.516;8.286;2022-11-15T04:20:08;10.27;;;6.18;;
62848;SDS011;48941;49.516;8.286;2022-11-15T04:22:57;9.65;;;6.57;;
62848;SDS011;48941;49.516;8.286;2022-11-15T04:25:43;10.35;;;6.55;;
62848;SDS011;48941;49.516;8.286;2022-11-15T04:28:12;11.27;;;7.05;;
62848;SDS011;48941;49.516;8.286;2022-11-15T04:30:40;10.35;;;6.65;;
62848;SDS011;48941;49.516;8.286;2022-11-15T04:33:08;10.38;;;6.68;;
62848;SDS011;48941;49.516;8.286;2022-11-15T04:35:35;11.73;;;6.70;;
62848;SDS011;48941;49.516;8.286;2022-11-15T04:38:05;12.15;;;7.55;;
62848;SDS011;48941;49.516;8.286;2022-11-15T04:40:34;11.20;;;6.70;;
62848;SDS011;48941;49.516;8.286;2022-11-15T04:43:02;11.07;;;6.82;;
62848;SDS011;48941;49.516;8.286;2022-11-15T04:45:30;11.77;;;7.53;;
62848;SDS011;48941;49.516;8.286;2022-11-15T04:47:58;9.98;;;6.72;;
62848;SDS011;48941;49.516;8.286;2022-11-15T04:50:25;10.38;;;6.60;;
62848;SDS011;48941;49.516;8.286;2022-11-15T04:52:53;11.02;;;7.10;;
62848;SDS011;48941;49.516;8.286;2022-11-15T04:55:23;11.32;;;6.95;;
62848;SDS011;48941;49.516;8.286;2022-11-15T04:57:57;11.05;;;7.20;;
62848;SDS011;48941;49.516;8.286;2022-11-15T05:00:27;11.27;;;7.07;;
62848;SDS011;48941;49.516;8.286;2022-11-15T05:02:56;11.30;;;7.07;;
62848;SDS011;48941;49.516;8.286;2022-11-15T05:05:41;21.45;;;10.63;;
62848;SDS011;48941;49.516;8.286;2022-11-15T05:08:09;18.73;;;9.80;;
62848;SDS011;48941;49.516;8.286;2022-11-15T05:10:38;14.52;;;9.82;;
62848;SDS011;48941;49.516;8.286;2022-11-15T05:13:06;14.25;;;9.85;;
62848;SDS011;48941;49.516;8.286;2022-11-15T05:15:34;16.35;;;10.27;;
62848;SDS011;48941;49.516;8.286;2022-11-15T05:18:01;16.45;;;9.82;;
62848;SDS011;48941;49.516;8.286;2022-11-15T05:20:30;15.63;;;9.07;;
62848;SDS011;48941;49.516;8.286;2022-11-15T05:22:58;13.07;;;8.95;;
62848;SDS011;48941;49.516;8.286;2022-11-15T05:25:26;13.93;;;8.43;;
62848;SDS011;48941;49.516;8.286;2022-11-15T05:27:55;12.65;;;8.32;;
62848;SDS011;48941;49.516;8.286;2022-11-15T05:30:23;13.32;;;8.30;;
62848;SDS011;48941;49.516;8.286;2022-11-15T05:32:51;15.90;;;8.63;;
62848;SDS011;48941;49.516;8.286;2022-11-15T05:35:28;14.18;;;8.18;;
62848;SDS011;48941;49.516;8.286;2022-11-15T05:37:58;10.18;;;7.30;;
62848;SDS011;48941;49.516;8.286;2022-11-15T05:40:26;11.85;;;7.85;;
62848;SDS011;48941;49.516;8.286;2022-11-15T05:42:56;13.23;;;7.97;;
62848;SDS011;48941;49.516;8.286;2022-11-15T05:45:24;13.30;;;7.72;;
62848;SDS011;48941;49.516;8.286;2022-11-15T05:47:52;11.75;;;8.77;;
62848;SDS011;48941;49.516;8.286;2022-11-15T05:50:22;15.35;;;8.80;;
62848;SDS011;48941;49.516;8.286;2022-11-15T05:52:50;11.35;;;7.90;;
62848;SDS011;48941;49.516;8.286;2022-11-15T05:55:19;11.80;;;7.15;;
62848;SDS011;48941;49.516;8.286;2022-11-15T05:57:47;8.43;;;6.82;;
62848;SDS011;48941;49.516;8.286;2022-11-15T06:00:16;8.98;;;6.10;;
62848;SDS011;48941;49.516;8.286;2022-11-15T06:02:44;11.15;;;7.35;;
62848;SDS011;48941;49.516;8.286;2022-11-15T06:05:12;8.48;;;6.18;;
62848;SDS011;48941;49.516;8.286;2022-11-15T06:07:40;11.75;;;6.60;;
62848;SDS011;48941;49.516;8.286;2022-11-15T06:10:08;13.40;;;6.90;;
62848;SDS011;48941;49.516;8.286;2022-11-15T06:12:36;13.75;;;6.90;;
62848;SDS011;48941;49.516;8.286;2022-11-15T06:15:04;11.68;;;6.30;;
62848;SDS011;48941;49.516;8.286;2022-11-15T06:17:34;9.65;;;6.35;;
62848;SDS011;48941;49.516;8.286;2022-11-15T06:20:02;11.55;;;6.18;;
62848;SDS011;48941;49.516;8.286;2022-11-15T06:22:31;12.43;;;6.68;;
62848;SDS011;48941;49.516;8.286;2022-11-15T06:24:59;8.52;;;6.03;;
62848;SDS011;48941;49.516;8.286;2022-11-15T06:27:30;8.95;;;6.45;;
62848;SDS011;48941;49.516;8.286;2022-11-15T06:29:58;9.43;;;6.07;;
62848;SDS011;48941;49.516;8.286;2022-11-15T06:32:26;8.63;;;5.47;;
62848;SDS011;48941;49.516;8.286;2022-11-15T06:34:55;7.68;;;5.45;;
62848;SDS011;48941;49.516;8.286;2022-11-15T06:37:23;9.88;;;5.82;;
62848;SDS011;48941;49.516;8.286;2022-11-15T06:39:51;9.23;;;5.63;;
62848;SDS011;48941;49.516;8.286;2022-11-15T06:42:18;11.65;;;6.22;;
62848;SDS011;48941;49.516;8.286;2022-11-15T06:44:46;10.70;;;6.07;;
62848;SDS011;48941;49.516;8.286;2022-11-15T06:47:14;12.50;;;6.10;;
62848;SDS011;48941;49.516;8.286;2022-11-15T06:49:42;8.70;;;6.15;;
62848;SDS011;48941;49.516;8.286;2022-11-15T06:52:11;10.02;;;6.03;;
62848;SDS011;48941;49.516;8.286;2022-11-15T06:54:39;8.52;;;5.65;;
62848;SDS011;48941;49.516;8.286;2022-11-15T06:57:07;8.93;;;5.80;;
62848;SDS011;48941;49.516;8.286;2022-11-15T06:59:34;8.73;;;5.50;;
62848;SDS011;48941;49.516;8.286;2022-11-15T07:02:06;8.60;;;6.07;;
62848;SDS011;48941;49.516;8.286;2022-11-15T07:07:06;16.40;;;6.22;;
62848;SDS011;48941;49.516;8.286;2022-11-15T07:09:35;12.93;;;7.85;;
62848;SDS011;48941;49.516;8.286;2022-11-15T07:12:03;16.23;;;10.63;;
62848;SDS011;48941;49.516;8.286;2022-11-15T07:14:33;10.35;;;7.78;;
62848;SDS011;48941;49.516;8.286;2022-11-15T07:17:03;12.02;;;6.50;;
62848;SDS011;48941;49.516;8.286;2022-11-15T07:19:31;10.73;;;5.97;;
62848;SDS011;48941;49.516;8.286;2022-11-15T07:21:58;10.60;;;6.93;;
62848;SDS011;48941;49.516;8.286;2022-11-15T07:24:26;10.20;;;7.00;;
62848;SDS011;48941;49.516;8.286;2022-11-15T07:26:55;12.15;;;8.23;;
62848;SDS011;48941;49.516;8.286;2022-11-15T07:29:23;16.10;;;9.52;;
62848;SDS011;48941;49.516;8.286;2022-11-15T07:31:51;14.65;;;10.82;;
62848;SDS011;48941;49.516;8.286;2022-11-15T07:34:19;12.25;;;8.43;;
62848;SDS011;48941;49.516;8.286;2022-11-15T07:36:46;12.48;;;8.15;;
62848;SDS011;48941;49.516;8.286;2022-11-15T07:39:14;16.10;;;9.60;;
62848;SDS011;48941;49.516;8.286;2022-11-15T07:41:42;10.77;;;7.50;;
62848;SDS011;48941;49.516;8.286;2022-11-15T07:44:12;15.13;;;7.72;;
62848;SDS011;48941;49.516;8.286;2022-11-15T07:46:39;11.70;;;7.75;;
62848;SDS011;48941;49.516;8.286;2022-11-15T07:49:07;14.07;;;7.72;;
62848;SDS011;48941;49.516;8.286;2022-11-15T07:51:35;11.98;;;7.28;;
62848;SDS011;48941;49.516;8.286;2022-11-15T07:54:03;10.30;;;6.50;;
62848;SDS011;48941;49.516;8.286;2022-11-15T07:56:30;10.63;;;6.63;;
62848;SDS011;48941;49.516;8.286;2022-11-15T07:58:58;12.45;;;6.50;;
62848;SDS011;48941;49.516;8.286;2022-11-15T08:01:28;12.10;;;6.75;;
62848;SDS011;48941;49.516;8.286;2022-11-15T08:03:56;10.90;;;6.55;;
62848;SDS011;48941;49.516;8.286;2022-11-15T08:06:24;8.52;;;6.22;;
62848;SDS011;48941;49.516;8.286;2022-11-15T08:08:51;10.45;;;7.10;;
62848;SDS011;48941;49.516;8.286;2022-11-15T08:11:19;12.10;;;7.70;;
62848;SDS011;48941;49.516;8.286;2022-11-15T08:13:47;12.93;;;7.55;;
62848;SDS011;48941;49.516;8.286;2022-11-15T08:16:14;13.85;;;8.25;;
62848;SDS011;48941;49.516;8.286;2022-11-15T08:18:44;18.25;;;8.40;;
62848;SDS011;48941;49.516;8.286;2022-11-15T08:21:12;16.05;;;8.85;;
62848;SDS011;48941;49.516;8.286;2022-11-15T08:23:43;13.32;;;8.55;;
62848;SDS011;48941;49.516;8.286;2022-11-15T08:26:11;14.75;;;7.53;;
62848;SDS011;48941;49.516;8.286;2022-11-15T08:28:39;11.90;;;7.70;;
62848;SDS011;48941;49.516;8.286;2022-11-15T08:31:12;11.35;;;7.70;;
62848;SDS011;48941;49.516;8.286;2022-11-15T08:33:41;10.60;;;7.57;;
62848;SDS011;48941;49.516;8.286;2022-11-15T08:36:12;9.40;;;6.65;;
62848;SDS011;48941;49.516;8.286;2022-11-15T08:38:42;13.55;;;7.38;;
62848;SDS011;48941;49.516;8.286;2022-11-15T08:41:11;11.02;;;7.07;;
62848;SDS011;48941;49.516;8.286;2022-11-15T08:43:41;12.43;;;7.35;;
62848;SDS011;48941;49.516;8.286;2022-11-15T08:46:09;13.48;;;7.13;;
62848;SDS011;48941;49.516;8.286;2022-11-15T08:48:39;9.88;;;6.55;;
62848;SDS011;48941;49.516;8.286;2022-11-15T08:51:08;12.30;;;7.57;;
62848;SDS011;48941;49.516;8.286;2022-11-15T08:53:36;10.10;;;6.72;;
62848;SDS011;48941;49.516;8.286;2022-11-15T08:56:06;12.13;;;7.63;;
62848;SDS011;48941;49.516;8.286;2022-11-15T08:58:34;13.00;;;7.55;;
62848;SDS011;48941;49.516;8.286;2022-11-15T09:01:03;15.85;;;7.30;;
62848;SDS011;48941;49.516;8.286;2022-11-15T09:03:31;12.70;;;7.55;;
62848;SDS011;48941;49.516;8.286;2022-11-15T09:06:00;12.82;;;7.65;;
62848;SDS011;48941;49.516;8.286;2022-11-15T09:08:30;12.95;;;7.82;;
62848;SDS011;48941;49.516;8.286;2022-11-15T09:11:13;10.43;;;7.20;;
62848;SDS011;48941;49.516;8.286;2022-11-15T09:13:42;10.55;;;7.45;;
62848;SDS011;48941;49.516;8.286;2022-11-15T09:16:10;11.20;;;6.70;;
62848;SDS011;48941;49.516;8.286;2022-11-15T09:18:39;10.48;;;6.90;;
62848;SDS011;48941;49.516;8.286;2022-11-15T09:21:06;15.75;;;7.30;;
62848;SDS011;48941;49.516;8.286;2022-11-15T09:23:37;13.80;;;6.80;;
62848;SDS011;48941;49.516;8.286;2022-11-15T09:26:05;13.38;;;6.55;;
62848;SDS011;48941;49.516;8.286;2022-11-15T09:28:33;14.93;;;7.75;;
62848;SDS011;48941;49.516;8.286;2022-11-15T09:31:04;11.23;;;7.72;;
62848;SDS011;48941;49.516;8.286;2022-11-15T09:33:33;16.23;;;9.00;;
62848;SDS011;48941;49.516;8.286;2022-11-15T09:36:01;18.48;;;7.97;;
62848;SDS011;48941;49.516;8.286;2022-11-15T09:38:30;12.98;;;7.57;;
62848;SDS011;48941;49.516;8.286;2022-11-15T09:41:13;12.50;;;7.05;;
62848;SDS011;48941;49.516;8.286;2022-11-15T09:44:03;9.88;;;6.70;;
62848;SDS011;48941;49.516;8.286;2022-11-15T09:46:44;11.73;;;7.05;;
62848;SDS011;48941;49.516;8.286;2022-11-15T09:49:21;11.77;;;7.22;;
62848;SDS011;48941;49.516;8.286;2022-11-15T09:51:50;13.05;;;7.53;;
62848;SDS011;48941;49.516;8.286;2022-11-15T09:54:22;13.68;;;7.47;;
62848;SDS011;48941;49.516;8.286;2022-11-15T09:57:18;16.25;;;7.10;;
62848;SDS011;48941;49.516;8.286;2022-11-15T10:00:00;11.73;;;6.72;;
62848;SDS011;48941;49.516;8.286;2022-11-15T10:03:00;11.73;;;6.75;;
62848;SDS011;48941;49.516;8.286;2022-11-15T10:05:37;12.05;;;7.35;;
62848;SDS011;48941;49.516;8.286;2022-11-15T10:08:11;10.98;;;6.53;;
62848;SDS011;48941;49.516;8.286;2022-11-15T10:10:51;9.45;;;6.90;;
62848;SDS011;48941;49.516;8.286;2022-11-15T10:13:44;9.60;;;6.65;;
62848;SDS011;48941;49.516;8.286;2022-11-15T10:16:17;11.75;;;7.60;;
62848;SDS011;48941;49.516;8.286;2022-11-15T10:18:59;9.73;;;6.55;;
62848;SDS011;48941;49.516;8.286;2022-11-15T10:21:35;9.65;;;6.68;;
62848;SDS011;48941;49.516;8.286;2022-11-15T10:24:15;10.35;;;6.60;;
62848;SDS011;48941;49.516;8.286;2022-11-15T10:26:47;12.73;;;7.90;;
62848;SDS011;48941;49.516;8.286;2022-11-15T10:29:19;15.93;;;8.70;;
62848;SDS011;48941;49.516;8.286;2022-11-15T10:31:52;17.77;;;8.95;;
62848;SDS011;48941;49.516;8.286;2022-11-15T10:34:21;19.20;;;7.90;;
62848;SDS011;48941;49.516;8.286;2022-11-15T10:36:54;10.95;;;7.13;;
62848;SDS011;48941;49.516;8.286;2022-11-15T10:39:24;15.57;;;8.32;;
62848;SDS011;48941;49.516;8.286;2022-11-15T10:41:53;12.80;;;7.88;;
62848;SDS011;48941;49.516;8.286;2022-11-15T10:44:24;12.52;;;8.13;;
62848;SDS011;48941;49.516;8.286;2022-11-15T10:49:57;17.23;;;9.10;;
62848;SDS011;48941;49.516;8.286;2022-11-15T10:52:27;15.20;;;9.00;;
62848;SDS011;48941;49.516;8.286;2022-11-15T10:54:58;11.73;;;7.72;;
62848;SDS011;48941;49.516;8.286;2022-11-15T10:57:29;16.23;;;8.38;;
62848;SDS011;48941;49.516;8.286;2022-11-15T11:00:06;12.00;;;7.75;;
62848;SDS011;48941;49.516;8.286;2022-11-15T11:02:56;11.35;;;8.30;;
62848;SDS011;48941;49.516;8.286;2022-11-15T11:05:26;12.70;;;7.93;;
62848;SDS011;48941;49.516;8.286;2022-11-15T11:07:56;12.38;;;7.55;;
62848;SDS011;48941;49.516;8.286;2022-11-15T11:10:26;12.07;;;7.63;;
62848;SDS011;48941;49.516;8.286;2022-11-15T11:13:19;10.40;;;7.53;;
62848;SDS011;48941;49.516;8.286;2022-11-15T11:15:55;10.75;;;7.90;;
62848;SDS011;48941;49.516;8.286;2022-11-15T11:18:28;13.00;;;7.28;;
62848;SDS011;48941;49.516;8.286;2022-11-15T11:21:07;12.45;;;7.50;;
62848;SDS011;48941;49.516;8.286;2022-11-15T11:23:42;9.43;;;6.88;;
62848;SDS011;48941;49.516;8.286;2022-11-15T11:26:33;12.98;;;8.15;;
62848;SDS011;48941;49.516;8.286;2022-11-15T11:29:15;9.98;;;7.50;;
62848;SDS011;48941;49.516;8.286;2022-11-15T11:31:57;12.70;;;7.32;;
62848;SDS011;48941;49.516;8.286;2022-11-15T11:34:36;13.07;;;7.55;;
62848;SDS011;48941;49.516;8.286;2022-11-15T11:37:17;11.98;;;7.63;;
62848;SDS011;48941;49.516;8.286;2022-11-15T11:40:02;11.52;;;7.68;;
62848;SDS011;48941;49.516;8.286;2022-11-15T11:42:42;14.85;;;8.35;;
62848;SDS011;48941;49.516;8.286;2022-11-15T11:45:21;12.43;;;7.82;;
62848;SDS011;48941;49.516;8.286;2022-11-15T11:48:02;10.70;;;6.28;;
62848;SDS011;48941;49.516;8.286;2022-11-15T11:50:39;9.55;;;5.65;;
62848;SDS011;48941;49.516;8.286;2022-11-15T11:53:11;9.80;;;5.40;;
62848;SDS011;48941;49.516;8.286;2022-11-15T11:55:43;8.93;;;5.38;;
62848;SDS011;48941;49.516;8.286;2022-11-15T11:58:14;6.88;;;4.93;;
62848;SDS011;48941;49.516;8.286;2022-11-15T12:00:47;9.02;;;5.32;;
62848;SDS011;48941;49.516;8.286;2022-11-15T12:05:54;9.05;;;4.30;;
62848;SDS011;48941;49.516;8.286;2022-11-15T12:08:29;8.20;;;4.65;;
62848;SDS011;48941;49.516;8.286;2022-11-15T12:11:06;6.50;;;4.60;;
62848;SDS011;48941;49.516;8.286;2022-11-15T12:13:39;7.70;;;4.55;;
62848;SDS011;48941;49.516;8.286;2022-11-15T12:16:11;7.22;;;4.00;;
62848;SDS011;48941;49.516;8.286;2022-11-15T12:18:44;6.55;;;4.10;;
62848;SDS011;48941;49.516;8.286;2022-11-15T12:21:17;7.55;;;3.72;;
62848;SDS011;48941;49.516;8.286;2022-11-15T12:24:00;6.30;;;3.60;;
62848;SDS011;48941;49.516;8.286;2022-11-15T12:26:32;5.85;;;3.80;;
62848;SDS011;48941;49.516;8.286;2022-11-15T12:29:05;8.32;;;4.18;;
62848;SDS011;48941;49.516;8.286;2022-11-15T12:31:39;5.47;;;3.60;;
62848;SDS011;48941;49.516;8.286;2022-11-15T12:34:15;5.72;;;4.05;;
62848;SDS011;48941;49.516;8.286;2022-11-15T12:37:02;10.63;;;4.28;;
62848;SDS011;48941;49.516;8.286;2022-11-15T12:40:29;7.10;;;4.13;;
62848;SDS011;48941;49.516;8.286;2022-11-15T12:43:00;6.05;;;3.95;;
62848;SDS011;48941;49.516;8.286;2022-11-15T12:45:31;6.17;;;4.13;;
62848;SDS011;48941;49.516;8.286;2022-11-15T12:51:06;5.28;;;4.22;;
62848;SDS011;48941;49.516;8.286;2022-11-15T12:53:34;5.40;;;4.00;;
62848;SDS011;48941;49.516;8.286;2022-11-15T12:56:09;6.80;;;3.95;;
62848;SDS011;48941;49.516;8.286;2022-11-15T12:58:48;6.70;;;3.90;;
62848;SDS011;48941;49.516;8.286;2022-11-15T13:04:27;10.13;;;4.72;;
62848;SDS011;48941;49.516;8.286;2022-11-15T13:07:00;7.20;;;4.32;;
62848;SDS011;48941;49.516;8.286;2022-11-15T13:15:33;8.45;;;4.10;;
62848;SDS011;48941;49.516;8.286;2022-11-15T13:21:18;6.85;;;3.70;;
62848;SDS011;48941;49.516;8.286;2022-11-15T13:24:11;5.68;;;3.72;;
62848;SDS011;48941;49.516;8.286;2022-11-15T13:26:41;5.00;;;3.63;;
62848;SDS011;48941;49.516;8.286;2022-11-15T13:29:14;8.20;;;3.42;;
62848;SDS011;48941;49.516;8.286;2022-11-15T13:31:44;13.55;;;4.70;;
62848;SDS011;48941;49.516;8.286;2022-11-15T13:34:18;6.20;;;4.35;;
62848;SDS011;48941;49.516;8.286;2022-11-15T13:37:16;8.77;;;5.55;;
62848;SDS011;48941;49.516;8.286;2022-11-15T13:40:15;10.95;;;7.60;;
62848;SDS011;48941;49.516;8.286;2022-11-15T13:42:47;9.02;;;5.10;;
62848;SDS011;48941;49.516;8.286;2022-11-15T13:45:16;14.57;;;6.80;;
62848;SDS011;48941;49.516;8.286;2022-11-15T13:47:50;8.13;;;4.60;;
62848;SDS011;48941;49.516;8.286;2022-11-15T13:50:19;9.93;;;5.72;;
62848;SDS011;48941;49.516;8.286;2022-11-15T13:52:50;11.48;;;4.85;;
62848;SDS011;48941;49.516;8.286;2022-11-15T13:55:20;9.50;;;4.85;;
62848;SDS011;48941;49.516;8.286;2022-11-15T13:57:50;8.65;;;4.40;;
62848;SDS011;48941;49.516;8.286;2022-11-15T14:03:13;9.35;;;4.28;;
62848;SDS011;48941;49.516;8.286;2022-11-15T14:05:45;7.43;;;5.30;;
62848;SDS011;48941;49.516;8.286;2022-11-15T14:08:29;7.47;;;5.07;;
62848;SDS011;48941;49.516;8.286;2022-11-15T14:11:07;9.27;;;4.60;;
62848;SDS011;48941;49.516;8.286;2022-11-15T14:13:58;7.50;;;5.38;;
62848;SDS011;48941;49.516;8.286;2022-11-15T14:16:32;9.30;;;5.97;;
62848;SDS011;48941;49.516;8.286;2022-11-15T14:19:02;13.13;;;6.47;;
62848;SDS011;48941;49.516;8.286;2022-11-15T14:21:31;12.85;;;7.25;;
62848;SDS011;48941;49.516;8.286;2022-11-15T14:24:16;8.25;;;6.18;;
62848;SDS011;48941;49.516;8.286;2022-11-15T14:26:46;16.98;;;10.18;;
62848;SDS011;48941;49.516;8.286;2022-11-15T14:32:05;20.73;;;12.60;;
62848;SDS011;48941;49.516;8.286;2022-11-15T14:34:40;18.38;;;11.23;;
62848;SDS011;48941;49.516;8.286;2022-11-15T14:37:10;19.92;;;10.13;;
62848;SDS011;48941;49.516;8.286;2022-11-15T14:39:47;19.27;;;8.27;;
62848;SDS011;48941;49.516;8.286;2022-11-15T14:42:17;11.73;;;6.97;;
62848;SDS011;48941;49.516;8.286;2022-11-15T14:44:45;11.20;;;6.45;;
62848;SDS011;48941;49.516;8.286;2022-11-15T14:47:13;10.68;;;5.88;;
62848;SDS011;48941;49.516;8.286;2022-11-15T14:49:41;17.13;;;6.82;;
62848;SDS011;48941;49.516;8.286;2022-11-15T14:52:25;11.00;;;6.05;;
62848;SDS011;48941;49.516;8.286;2022-11-15T14:54:58;8.63;;;5.57;;
62848;SDS011;48941;49.516;8.286;2022-11-15T14:57:29;9.20;;;5.10;;
62848;SDS011;48941;49.516;8.286;2022-11-15T14:59:57;8.20;;;5.88;;
62848;SDS011;48941;49.516;8.286;2022-11-15T15:02:26;6.72;;;3.97;;
62848;SDS011;48941;49.516;8.286;2022-11-15T15:04:54;8.43;;;4.45;;
62848;SDS011;48941;49.516;8.286;2022-11-15T15:07:27;8.65;;;4.35;;
62848;SDS011;48941;49.516;8.286;2022-11-15T15:09:55;13.10;;;9.73;;
62848;SDS011;48941;49.516;8.286;2022-11-15T15:12:44;15.48;;;9.13;;
62848;SDS011;48941;49.516;8.286;2022-11-15T15:15:12;13.95;;;8.25;;
62848;SDS011;48941;49.516;8.286;2022-11-15T15:17:42;13.43;;;6.70;;
62848;SDS011;48941;49.516;8.286;2022-11-15T15:20:10;12.48;;;6.70;;
62848;SDS011;48941;49.516;8.286;2022-11-15T15:22:38;11.50;;;6.22;;
62848;SDS011;48941;49.516;8.286;2022-11-15T15:25:15;11.30;;;5.65;;
62848;SDS011;48941;49.516;8.286;2022-11-15T15:27:53;12.75;;;6.72;;
62848;SDS011;48941;49.516;8.286;2022-11-15T15:30:22;13.20;;;7.30;;
62848;SDS011;48941;49.516;8.286;2022-11-15T15:32:50;11.10;;;7.63;;
62848;SDS011;48941;49.516;8.286;2022-11-15T15:35:19;15.70;;;7.63;;
62848;SDS011;48941;49.516;8.286;2022-11-15T15:37:48;11.57;;;7.35;;
62848;SDS011;48941;49.516;8.286;2022-11-15T15:40:18;12.00;;;7.45;;
62848;SDS011;48941;49.516;8.286;2022-11-15T15:42:47;11.85;;;5.88;;
62848;SDS011;48941;49.516;8.286;2022-11-15T15:45:17;8.77;;;4.85;;
62848;SDS011;48941;49.516;8.286;2022-11-15T15:47:46;5.78;;;4.20;;
62848;SDS011;48941;49.516;8.286;2022-11-15T15:50:22;7.28;;;4.20;;
62848;SDS011;48941;49.516;8.286;2022-11-15T15:52:51;9.48;;;4.75;;
62848;SDS011;48941;49.516;8.286;2022-11-15T15:55:21;8.07;;;4.50;;
62848;SDS011;48941;49.516;8.286;2022-11-15T15:57:49;8.55;;;4.30;;
62848;SDS011;48941;49.516;8.286;2022-11-15T16:00:19;6.43;;;4.40;;